Time;durP1;ratioP1;P1;durP2;ratioP2;P2;SDS_P1;SDS_P2;PMS_P1;PMS_P2;Temp;Humidity;BMP_temperature;BMP_pressure;BME280_temperature;BME280_humidity;BME280_pressure;Samples;Min_cycle;Max_cycle;Signal;HPM_P1;HPM_P2
2022/06/03 00:00:20;;;;;;;2.53;2.33;;;;;;;10.37;100.00;102274.28;4934765;28;20066;-77
2022/06/03 00:03:28;;;;;;;6.85;2.55;;;;;;;10.37;100.00;102277.78;4941978;28;20038;-77
2022/06/03 00:06:02;;;;;;;5.13;2.35;;;;;;;10.36;100.00;102275.09;4945528;28;20039;-77
2022/06/03 00:08:40;;;;;;;5.05;2.55;;;;;;;10.36;100.00;102270.75;4898876;28;20055;-77
2022/06/03 00:11:36;;;;;;;4.20;2.30;;;;;;;10.33;100.00;102281.19;4962088;28;20054;-77
2022/06/03 00:14:30;;;;;;;2.55;2.35;;;;;;;10.32;100.00;102277.69;4960876;28;20054;-76
2022/06/03 00:17:07;;;;;;;3.08;2.38;;;;;;;10.31;100.00;102277.63;4958964;28;20522;-77
2022/06/03 00:19:44;;;;;;;2.70;2.47;;;;;;;10.30;100.00;102275.81;4961290;28;20184;-77
2022/06/03 00:22:13;;;;;;;4.43;2.75;;;;;;;10.27;100.00;102273.09;4957135;28;20043;-77
2022/06/03 00:24:50;;;;;;;6.05;2.70;;;;;;;10.24;100.00;102276.53;4921513;28;20047;-75
2022/06/03 00:27:27;;;;;;;3.45;2.25;;;;;;;10.22;100.00;102277.34;4952606;28;20043;-76
2022/06/03 00:30:04;;;;;;;4.50;2.60;;;;;;;10.21;100.00;102276.47;4965739;28;20043;-77
2022/06/03 00:32:36;;;;;;;4.28;2.97;;;;;;;10.20;100.00;102273.78;4945537;28;20046;-76
2022/06/03 00:35:26;;;;;;;3.00;2.80;;;;;;;10.17;100.00;102278.94;4966401;28;20077;-76
2022/06/03 00:38:04;;;;;;;3.88;2.90;;;;;;;10.15;100.00;102273.63;4912637;28;20066;-76
2022/06/03 00:40:51;;;;;;;2.55;2.35;;;;;;;10.14;100.00;102271.88;4951720;28;20050;-78
2022/06/03 00:43:22;;;;;;;4.65;2.65;;;;;;;10.10;100.00;102281.41;4964773;28;20403;-77
2022/06/03 00:45:50;;;;;;;3.55;2.90;;;;;;;10.08;100.00;102277.84;4970698;28;20085;-77
2022/06/03 00:48:43;;;;;;;5.05;2.90;;;;;;;10.07;100.00;102277.81;4964546;28;20504;-77
2022/06/03 00:51:46;;;;;;;5.88;2.88;;;;;;;10.05;100.00;102274.25;4956874;28;20054;-76
2022/06/03 00:54:45;;;;;;;4.03;2.65;;;;;;;10.02;100.00;102275.06;4905530;28;20409;-77
2022/06/03 00:57:31;;;;;;;5.47;2.67;;;;;;;10.01;100.00;102268.00;4960642;28;20392;-76
2022/06/03 01:00:27;;;;;;;5.22;2.90;;;;;;;9.99;100.00;102269.69;4961864;28;20047;-77
2022/06/03 01:03:09;;;;;;;4.43;2.50;;;;;;;9.97;100.00;102267.88;4934926;28;20495;-77
2022/06/03 01:06:10;;;;;;;7.45;3.30;;;;;;;9.93;100.00;102262.50;4938749;28;20070;-77
2022/06/03 01:09:17;;;;;;;3.13;2.47;;;;;;;9.89;100.00;102260.66;4919734;28;22897;-77
2022/06/03 01:12:01;;;;;;;5.15;2.95;;;;;;;9.86;100.00;102260.53;4955973;28;20615;-77
2022/06/03 01:15:00;;;;;;;5.63;2.65;;;;;;;9.84;100.00;102258.72;4949043;28;20047;-77
2022/06/03 01:17:55;;;;;;;2.67;2.33;;;;;;;9.81;100.00;102258.63;4942759;28;20504;-77
2022/06/03 01:20:33;;;;;;;5.88;3.03;;;;;;;9.77;100.00;102247.13;4961591;28;20515;-77
2022/06/03 01:23:20;;;;;;;3.20;2.60;;;;;;;9.76;100.00;102248.88;4954515;28;20439;-76
2022/06/03 01:25:54;;;;;;;7.05;3.15;;;;;;;9.76;100.00;102250.63;4918560;28;20258;-77
2022/06/03 01:29:16;;;;;;;3.42;2.90;;;;;;;9.74;100.00;102249.69;4965145;28;20047;-77
2022/06/03 01:32:19;;;;;;;4.95;3.72;;;;;;;9.71;100.00;102253.09;4910045;29;20074;-77
2022/06/03 01:35:16;;;;;;;3.50;3.20;;;;;;;9.71;100.00;102249.56;4947808;28;20165;-77
2022/06/03 01:37:48;;;;;;;3.80;2.65;;;;;;;9.69;100.00;102244.25;4951350;28;20612;-77
2022/06/03 01:40:59;;;;;;;3.35;2.78;;;;;;;9.68;100.00;102247.75;4909938;28;20057;-77
2022/06/03 01:43:39;;;;;;;4.93;3.47;;;;;;;9.68;100.00;102244.25;4950865;28;20061;-76
2022/06/03 01:46:27;;;;;;;3.08;2.70;;;;;;;9.68;100.00;102249.50;4946663;28;20053;-76
2022/06/03 01:49:11;;;;;;;3.85;3.17;;;;;;;9.66;100.00;102246.81;4972352;28;20054;-77
2022/06/03 01:52:01;;;;;;;3.67;3.33;;;;;;;9.64;100.00;102245.88;4971837;28;20352;-77
2022/06/03 01:54:47;;;;;;;3.63;3.10;;;;;;;9.64;100.00;102250.25;4953002;28;20512;-77
2022/06/03 01:57:43;;;;;;;5.07;3.58;;;;;;;9.60;100.00;102249.25;4927399;28;20050;-77
2022/06/03 02:00:34;;;;;;;4.65;3.08;;;;;;;9.61;100.00;102247.53;4961509;28;20050;-77
2022/06/03 02:03:40;;;;;;;5.15;3.38;;;;;;;9.60;100.00;102246.63;4939348;28;20103;-77
2022/06/03 02:06:26;;;;;;;4.70;3.42;;;;;;;9.59;100.00;102247.47;4966689;28;20051;-77
2022/06/03 02:09:13;;;;;;;5.85;3.00;;;;;;;9.57;100.00;102238.66;4952070;28;20062;-77
2022/06/03 02:11:52;;;;;;;5.55;3.22;;;;;;;9.55;100.00;102235.09;4933321;28;20320;-77
2022/06/03 02:14:29;;;;;;;3.78;2.72;;;;;;;9.53;100.00;102242.94;4930646;28;20046;-77
2022/06/03 02:17:00;;;;;;;5.13;2.85;;;;;;;9.52;100.00;102248.16;4971768;28;20061;-77
2022/06/03 02:19:53;;;;;;;4.03;2.72;;;;;;;9.50;100.00;102242.81;4958966;28;20499;-77
2022/06/03 02:22:27;;;;;;;4.35;3.03;;;;;;;9.49;100.00;102237.50;4958987;28;20051;-77
2022/06/03 02:25:24;;;;;;;5.60;3.10;;;;;;;9.48;100.00;102230.47;4927529;28;20500;-77
2022/06/03 02:28:25;;;;;;;6.28;2.92;;;;;;;9.46;100.00;102232.19;4937743;28;20047;-77
2022/06/03 02:31:15;;;;;;;3.63;2.88;;;;;;;9.45;100.00;102227.75;4949778;28;20054;-77
2022/06/03 02:34:08;;;;;;;3.33;3.00;;;;;;;9.44;100.00;102225.97;4938236;28;20046;-77
2022/06/03 02:36:51;;;;;;;3.88;3.35;;;;;;;9.42;100.00;102225.03;4950116;28;20598;-77
2022/06/03 02:39:22;;;;;;;5.13;3.33;;;;;;;9.42;100.00;102223.31;4954645;28;20043;-77
2022/06/03 02:42:21;;;;;;;5.13;3.70;;;;;;;9.43;100.00;102213.66;4924522;28;20345;-77
2022/06/03 02:45:03;;;;;;;3.50;3.22;;;;;;;9.45;100.00;102217.22;4925093;28;20074;-77
2022/06/03 02:48:38;;;;;;;3.63;3.05;;;;;;;9.47;100.00;102212.91;4937885;28;20250;-77
2022/06/03 02:51:25;;;;;;;10.35;4.00;;;;;;;9.46;100.00;102217.28;4963594;28;20435;-77
2022/06/03 02:54:03;;;;;;;4.53;3.88;;;;;;;9.47;100.00;102220.78;4951571;28;20035;-77
2022/06/03 02:56:47;;;;;;;4.80;3.40;;;;;;;9.47;100.00;102224.34;4925035;28;20041;-76
2022/06/03 02:59:52;;;;;;;5.53;3.83;;;;;;;9.48;100.00;102230.47;4909285;28;20042;-76
2022/06/03 03:02:27;;;;;;;7.38;3.70;;;;;;;9.49;100.00;102230.53;4948755;28;20062;-76
2022/06/03 03:05:26;;;;;;;4.90;3.70;;;;;;;9.50;100.00;102228.78;4950948;28;20403;-77
2022/06/03 03:07:57;;;;;;;3.50;3.20;;;;;;;9.52;100.00;102227.09;4958409;28;20050;-77
2022/06/03 03:10:35;;;;;;;6.10;3.75;;;;;;;9.52;100.00;102225.34;4940591;28;20046;-77
2022/06/03 03:13:24;;;;;;;8.85;3.97;;;;;;;9.55;100.00;102225.44;4934239;28;20053;-77
2022/06/03 03:16:35;;;;;;;5.53;3.40;;;;;;;9.57;100.00;102226.38;4940964;28;20530;-77
2022/06/03 03:19:34;;;;;;;9.10;4.00;;;;;;;9.59;100.00;102229.06;4958751;28;20061;-76
2022/06/03 03:22:14;;;;;;;3.03;2.80;;;;;;;9.60;100.00;102224.69;4968593;28;20400;-77
2022/06/03 03:24:56;;;;;;;4.35;3.50;;;;;;;9.61;100.00;102223.84;4953675;28;20268;-76
2022/06/03 03:27:57;;;;;;;4.85;3.35;;;;;;;9.60;100.00;102228.19;4931928;28;20062;-77
2022/06/03 03:30:38;;;;;;;6.55;3.65;;;;;;;9.59;100.00;102223.81;4898679;28;20043;-76
2022/06/03 03:33:38;;;;;;;6.20;2.90;;;;;;;9.59;100.00;102228.19;4951730;28;20522;-77
2022/06/03 03:36:33;;;;;;;4.97;3.37;;;;;;;9.58;100.00;102216.72;4955849;28;20043;-78
2022/06/03 03:39:32;;;;;;;3.30;3.00;;;;;;;9.60;100.00;102219.41;4965617;28;20051;-77
2022/06/03 03:42:19;;;;;;;5.18;3.35;;;;;;;9.60;100.00;102212.41;4936851;28;20097;-77
2022/06/03 03:45:11;;;;;;;5.10;3.55;;;;;;;9.61;100.00;102214.22;4904751;28;20957;-77
2022/06/03 03:48:06;;;;;;;4.30;3.60;;;;;;;9.64;100.00;102216.03;4923160;29;20058;-77
2022/06/03 03:51:12;;;;;;;4.88;3.50;;;;;;;9.64;100.00;102219.56;4951194;28;20050;-77
2022/06/03 03:53:46;;;;;;;3.65;3.10;;;;;;;9.66;100.00;102209.06;4954332;28;20050;-77
2022/06/03 03:56:17;;;;;;;7.75;4.00;;;;;;;9.70;100.00;102213.59;4952209;28;20051;-77
2022/06/03 03:59:00;;;;;;;4.97;3.83;;;;;;;9.75;100.00;102211.97;4941511;28;20042;-77
2022/06/03 04:01:46;;;;;;;6.78;4.00;;;;;;;9.80;100.00;102222.63;4904241;28;20074;-77
2022/06/03 04:04:42;;;;;;;5.57;3.40;;;;;;;9.83;100.00;102217.44;4957936;28;20050;-77
2022/06/03 04:07:26;;;;;;;4.80;3.40;;;;;;;9.88;100.00;102216.72;4957390;28;20051;-76
2022/06/03 04:10:14;;;;;;;6.07;3.75;;;;;;;9.93;100.00;102216.88;4960442;28;20349;-76
2022/06/03 04:13:13;;;;;;;4.85;4.35;;;;;;;10.02;100.00;102211.84;4938272;28;20074;-76
2022/06/03 04:16:11;;;;;;;7.15;4.10;;;;;;;10.09;100.00;102208.53;4925901;28;20062;-76
2022/06/03 04:19:10;;;;;;;6.57;3.92;;;;;;;10.14;100.00;102206.03;4946793;28;20509;-76
2022/06/03 04:21:50;;;;;;;7.25;4.85;;;;;;;10.18;100.00;102205.25;4948241;28;20174;-77
2022/06/03 04:24:28;;;;;;;8.15;4.47;;;;;;;10.25;100.00;102217.72;4960775;28;20043;-76
2022/06/03 04:27:27;;;;;;;4.82;3.72;;;;;;;10.32;100.00;102217.09;4931014;29;20078;-77
2022/06/03 04:30:20;;;;;;;7.63;3.67;;;;;;;10.38;100.00;102211.09;4935279;28;20043;-76
2022/06/03 04:33:07;;;;;;;13.95;8.00;;;;;;;10.45;100.00;102222.66;4932794;28;20448;-76
2022/06/03 04:36:01;;;;;;;7.13;4.68;;;;;;;10.50;100.00;102226.31;4960034;28;20527;-76
2022/06/03 04:38:56;;;;;;;5.18;4.35;;;;;;;10.58;100.00;102210.69;4956600;28;20047;-77
2022/06/03 04:41:45;;;;;;;6.70;4.80;;;;;;;10.64;100.00;102208.19;4968022;28;20031;-77
2022/06/03 04:44:38;;;;;;;6.10;4.05;;;;;;;10.70;100.00;102203.97;4939294;28;20054;-76
2022/06/03 04:47:44;;;;;;;9.48;5.00;;;;;;;10.77;100.00;102199.72;4938440;28;20039;-76
2022/06/03 04:50:28;;;;;;;6.18;4.82;;;;;;;10.84;100.00;102206.06;4954275;28;20397;-76
2022/06/03 04:53:47;;;;;;;6.13;4.22;;;;;;;10.90;100.00;102206.19;4947590;28;20047;-77
2022/06/03 04:56:34;;;;;;;7.70;4.40;;;;;;;10.95;100.00;102201.91;4933884;28;20428;-77
2022/06/03 04:59:31;;;;;;;5.03;4.63;;;;;;;11.01;100.00;102211.72;4954597;28;20044;-76
2022/06/03 05:02:21;;;;;;;6.55;4.32;;;;;;;11.14;100.00;102211.16;4963065;28;20054;-76
2022/06/03 05:05:14;;;;;;;5.00;4.25;;;;;;;12.03;100.00;102210.38;4926238;28;20050;-77
2022/06/03 05:07:42;;;;;;;5.85;3.92;;;;;;;13.15;100.00;102206.03;4948405;28;20611;-76
2022/06/03 05:11:12;;;;;;;7.50;3.67;;;;;;;14.52;100.00;102204.13;4931692;28;20047;-76
2022/06/03 05:13:46;;;;;;;5.63;3.93;;;;;;;15.79;100.00;102196.94;4862361;29;20311;-77
2022/06/03 05:16:23;;;;;;;6.00;3.75;;;;;;;16.65;100.00;102195.25;4943430;28;20314;-76
2022/06/03 05:18:52;;;;;;;4.63;3.78;;;;;;;17.42;100.00;102193.34;4905845;28;20416;-77
2022/06/03 05:21:32;;;;;;;5.05;3.40;;;;;;;18.26;100.00;102188.47;4942350;28;20042;-76
2022/06/03 05:24:16;;;;;;;5.70;3.67;;;;;;;18.97;100.00;102186.09;4968712;28;20400;-76
2022/06/03 05:27:22;;;;;;;7.88;4.22;;;;;;;19.52;95.30;102194.38;4916042;28;20690;-77
2022/06/03 05:29:56;;;;;;;7.30;3.65;;;;;;;19.62;100.00;102191.56;4954273;28;20054;-78
2022/06/03 05:32:43;;;;;;;4.20;3.45;;;;;;;20.02;100.00;102188.34;4924158;28;20563;-77
2022/06/03 05:35:22;;;;;;;3.58;2.40;;;;;;;20.47;94.28;102186.75;4887306;28;20404;-77
2022/06/03 05:38:14;;;;;;;5.25;3.17;;;;;;;20.69;90.34;102187.31;4954616;28;20051;-77
2022/06/03 05:44:36;;;;;;;5.78;2.60;;;;;;;21.53;87.35;102188.38;4950887;28;20069;-77
2022/06/03 05:47:11;;;;;;;4.15;2.40;;;;;;;21.56;83.56;102187.44;4937417;28;20063;-77
2022/06/03 05:50:03;;;;;;;10.20;2.80;;;;;;;21.34;76.10;102184.28;4921976;28;20377;-77
2022/06/03 05:52:55;;;;;;;7.43;2.58;;;;;;;20.60;76.81;102183.00;4929885;28;20551;-78
2022/06/03 05:56:01;;;;;;;4.15;2.30;;;;;;;19.99;72.97;102182.16;4947384;28;20248;-77
2022/06/03 05:58:37;;;;;;;7.78;2.30;;;;;;;19.71;79.53;102177.16;4946054;28;20039;-77
2022/06/03 06:01:26;;;;;;;5.47;1.90;;;;;;;19.64;79.60;102183.50;4946636;28;20062;-77
2022/06/03 06:04:12;;;;;;;4.28;2.10;;;;;;;19.40;75.63;102190.94;4962149;28;20034;-77
2022/06/03 06:06:54;;;;;;;5.68;2.40;;;;;;;19.10;78.51;102189.50;4904000;28;20048;-77
2022/06/03 06:09:28;;;;;;;3.90;2.40;;;;;;;18.69;78.13;102196.13;4926942;28;20408;-75
2022/06/03 06:12:34;;;;;;;4.05;2.50;;;;;;;18.49;78.89;102182.97;4959703;28;20401;-77
2022/06/03 06:15:48;;;;;;;3.33;2.53;;;;;;;18.43;80.40;102177.66;4949770;28;20046;-76
2022/06/03 06:18:33;;;;;;;5.18;2.70;;;;;;;18.80;81.50;102172.00;4923837;28;20061;-77
2022/06/03 06:21:31;;;;;;;6.97;2.83;;;;;;;18.97;81.38;102171.84;4919698;28;20042;-76
2022/06/03 06:24:03;;;;;;;5.43;2.88;;;;;;;19.32;81.20;102175.91;4935197;28;20073;-76
2022/06/03 06:27:17;;;;;;;2.80;2.30;;;;;;;19.76;75.83;102178.03;4937253;28;20736;-76
2022/06/03 06:29:48;;;;;;;2.67;2.28;;;;;;;19.69;74.82;102181.66;4946958;28;20051;-76
2022/06/03 06:32:35;;;;;;;3.45;2.40;;;;;;;19.45;74.67;102186.44;4936946;28;20418;-76
2022/06/03 06:35:34;;;;;;;7.45;2.80;;;;;;;19.13;75.68;102180.56;4951500;28;20057;-76
2022/06/03 06:38:30;;;;;;;3.25;2.65;;;;;;;18.83;76.28;102188.91;4916587;28;20039;-77
2022/06/03 06:41:16;;;;;;;3.95;2.70;;;;;;;18.51;78.38;102183.84;4951509;28;20051;-76
2022/06/03 06:44:00;;;;;;;6.70;2.90;;;;;;;18.30;79.63;102187.56;4939956;28;20426;-76
2022/06/03 06:46:56;;;;;;;4.20;2.63;;;;;;;18.14;79.18;102191.22;4950421;28;20356;-76
2022/06/03 06:49:30;;;;;;;5.25;2.67;;;;;;;17.98;79.26;102199.34;4931869;28;20687;-77
2022/06/03 06:52:36;;;;;;;5.53;2.88;;;;;;;17.76;79.44;102195.00;4915956;28;20038;-77
2022/06/03 06:55:52;;;;;;;6.32;2.88;;;;;;;17.55;78.55;102204.84;4939050;28;20093;-77
2022/06/03 06:58:31;;;;;;;4.38;2.72;;;;;;;17.33;78.75;102202.28;4931276;28;20040;-77
2022/06/03 07:01:02;;;;;;;8.98;3.33;;;;;;;17.25;78.08;102196.06;4964608;28;20386;-76
2022/06/03 07:03:54;;;;;;;3.50;2.92;;;;;;;17.18;79.26;102196.97;4927081;28;20070;-76
2022/06/03 07:06:35;;;;;;;7.75;3.38;;;;;;;17.11;79.68;102201.44;4931192;28;20047;-76
2022/06/03 07:09:27;;;;;;;5.60;3.33;;;;;;;17.10;79.62;102198.78;4907116;28;20039;-77
2022/06/03 07:12:04;;;;;;;5.68;3.00;;;;;;;17.10;80.00;102199.66;4933947;28;20047;-77
2022/06/03 07:14:39;;;;;;;7.28;3.20;;;;;;;17.13;80.38;102202.31;4955057;28;20702;-77
2022/06/03 07:20:07;;;;;;;4.43;2.83;;;;;;;17.14;80.28;102200.53;4938364;28;20039;-77
2022/06/03 07:22:42;;;;;;;4.22;3.40;;;;;;;17.13;79.09;102201.44;4891135;28;20448;-77
2022/06/03 07:25:26;;;;;;;5.18;3.15;;;;;;;17.04;80.00;102194.34;4935696;28;20042;-77
2022/06/03 07:28:31;;;;;;;8.82;3.25;;;;;;;17.07;80.93;102190.78;4959153;28;20089;-77
2022/06/03 07:31:13;;;;;;;3.58;3.30;;;;;;;17.13;81.40;102194.34;4940879;28;20035;-76
2022/06/03 07:34:03;;;;;;;6.05;3.75;;;;;;;17.05;80.65;102190.81;4945225;28;20372;-76
2022/06/03 07:36:40;;;;;;;4.67;3.30;;;;;;;17.09;82.00;102192.59;4926122;28;20236;-76
2022/06/03 07:39:28;;;;;;;3.47;3.17;;;;;;;17.19;82.24;102192.56;4917404;28;20055;-77
2022/06/03 07:42:07;;;;;;;4.10;3.22;;;;;;;17.23;82.99;102196.97;4949559;28;20519;-76
2022/06/03 07:45:03;;;;;;;6.18;2.78;;;;;;;17.28;81.35;102190.75;4924665;28;20043;-76
2022/06/03 07:47:33;;;;;;;3.50;2.65;;;;;;;17.30;81.10;102193.41;4933726;28;20238;-75
2022/06/03 07:50:07;;;;;;;6.47;3.60;;;;;;;17.34;80.95;102189.84;4931362;28;20049;-75
2022/06/03 07:52:59;;;;;;;4.47;2.80;;;;;;;17.31;80.24;102197.81;4923744;28;20272;-77
2022/06/03 07:55:31;;;;;;;3.20;2.88;;;;;;;17.17;79.52;102189.00;4879940;28;21537;-75
2022/06/03 07:58:06;;;;;;;2.88;2.58;;;;;;;17.14;80.23;102185.47;4928577;28;20369;-76
2022/06/03 08:00:38;;;;;;;2.72;2.30;;;;;;;17.19;79.08;102184.56;4958261;28;20077;-76
2022/06/03 08:03:23;;;;;;;3.10;2.80;;;;;;;17.17;79.17;102183.69;4965212;28;20051;-76
2022/06/03 08:06:01;;;;;;;4.50;2.80;;;;;;;17.20;79.78;102179.25;4952409;28;20044;-76
2022/06/03 08:11:30;;;;;;;2.92;2.67;;;;;;;17.24;78.59;102182.75;4899690;28;20046;-77
2022/06/03 08:14:00;;;;;;;3.13;2.70;;;;;;;17.24;78.34;102180.09;4934889;28;20039;-76
2022/06/03 08:16:29;;;;;;;;;;;;;;;17.15;77.83;102181.91;4947506;28;20047;-76
2022/06/03 08:19:02;;;;;;;7.40;2.55;;;;;;;17.17;78.05;102179.25;4925813;28;19926;-76
2022/06/03 08:21:38;;;;;;;2.60;2.40;;;;;;;17.18;76.78;102188.97;4915902;28;20256;-76
2022/06/03 08:24:09;;;;;;;2.53;2.33;;;;;;;17.23;77.03;102194.31;4959290;28;20057;-76
2022/06/03 08:26:42;;;;;;;3.15;2.60;;;;;;;17.28;75.40;102192.53;4897243;28;20049;-76
2022/06/03 08:29:22;;;;;;;3.25;2.10;;;;;;;17.17;77.33;102181.91;4930072;28;20500;-76
2022/06/03 08:31:54;;;;;;;2.55;2.35;;;;;;;17.20;76.78;102183.66;4952912;28;20432;-76
2022/06/03 08:34:38;;;;;;;2.50;1.80;;;;;;;17.33;77.77;102185.38;4950810;28;20057;-76
2022/06/03 08:37:13;;;;;;;3.78;2.10;;;;;;;17.45;78.01;102184.47;4926607;28;20051;-77
2022/06/03 08:39:43;;;;;;;4.38;2.03;;;;;;;17.51;75.58;102185.31;4937124;28;20097;-76
2022/06/03 08:42:42;;;;;;;3.00;1.80;;;;;;;17.51;76.81;102188.00;4909105;28;20055;-76
2022/06/03 08:45:21;;;;;;;2.10;1.90;;;;;;;17.60;77.19;102183.50;4928391;28;20307;-77
2022/06/03 08:47:55;;;;;;;4.72;2.60;;;;;;;17.61;75.81;102174.63;4940593;28;20043;-77
2022/06/03 08:50:49;;;;;;;3.58;2.40;;;;;;;17.72;75.96;102180.78;4953059;28;20050;-77
2022/06/03 08:53:28;;;;;;;1.80;1.55;;;;;;;17.83;75.81;102176.28;4924483;28;20058;-77
2022/06/03 08:56:08;;;;;;;3.65;1.50;;;;;;;17.87;74.51;102178.06;4958288;28;20053;-77
2022/06/03 08:58:54;;;;;;;2.55;1.88;;;;;;;17.89;72.62;102180.72;4938871;28;20039;-75
2022/06/03 09:01:25;;;;;;;3.22;1.50;;;;;;;17.93;73.84;102175.34;4934613;28;20039;-76
2022/06/03 09:04:25;;;;;;;4.78;2.10;;;;;;;18.03;72.88;102177.97;4957486;28;20055;-76
2022/06/03 09:07:14;;;;;;;2.42;1.90;;;;;;;18.09;72.55;102172.56;4913711;28;20436;-75
2022/06/03 09:10:07;;;;;;;2.08;1.70;;;;;;;18.09;71.97;102172.56;4938604;28;20077;-76
2022/06/03 09:12:57;;;;;;;2.00;1.90;;;;;;;18.17;68.19;102169.88;4920423;28;23325;-76
2022/06/03 09:15:33;;;;;;;2.72;1.90;;;;;;;18.15;71.53;102169.88;4930235;28;20062;-76
2022/06/03 09:18:31;;;;;;;3.63;1.60;;;;;;;18.19;70.24;102166.28;4952335;28;20077;-75
2022/06/03 09:21:14;;;;;;;1.45;1.35;;;;;;;18.19;71.90;102160.09;4941907;28;20519;-75
2022/06/03 09:23:48;;;;;;;2.03;1.40;;;;;;;18.27;70.94;102153.78;4948242;28;20061;-76
2022/06/03 09:26:25;;;;;;;1.75;1.40;;;;;;;18.37;70.35;102159.03;4919588;28;20058;-75
2022/06/03 09:28:57;;;;;;;2.25;1.60;;;;;;;18.46;70.36;102154.50;4922413;28;20054;-76
2022/06/03 09:31:26;;;;;;;4.40;1.73;;;;;;;18.53;69.89;102158.00;4946854;28;20050;-76
2022/06/03 09:33:56;;;;;;;5.88;1.50;;;;;;;18.57;69.75;102146.41;4924319;28;20518;-76
2022/06/03 09:36:26;;;;;;;3.20;1.52;;;;;;;18.67;70.08;102142.72;4936581;28;20462;-76
2022/06/03 09:38:58;;;;;;;2.63;1.35;;;;;;;18.75;69.86;102147.13;4952744;28;20400;-76
2022/06/03 09:41:33;;;;;;;1.25;1.15;;;;;;;18.87;69.45;102152.38;4944253;28;20536;-75
2022/06/03 09:44:06;;;;;;;2.95;1.45;;;;;;;19.01;69.14;102138.84;4908515;28;20082;-76
2022/06/03 09:46:36;;;;;;;4.15;1.60;;;;;;;19.14;68.69;102151.16;4930879;28;20058;-76
2022/06/03 09:49:05;;;;;;;1.70;1.60;;;;;;;19.24;67.19;102147.50;4953854;28;20066;-76
2022/06/03 09:51:55;;;;;;;4.68;1.50;;;;;;;19.28;66.75;102142.97;4948749;28;20055;-76
2022/06/03 09:54:24;;;;;;;1.95;1.20;;;;;;;19.36;66.17;102150.94;4947410;28;20041;-76
2022/06/03 09:56:56;;;;;;;1.98;1.33;;;;;;;19.44;66.22;102143.69;4945074;28;20560;-76
2022/06/03 09:59:27;;;;;;;3.15;1.42;;;;;;;19.51;64.98;102147.13;4914821;28;20061;-76
2022/06/03 10:01:55;;;;;;;1.40;1.30;;;;;;;19.58;65.70;102146.16;4935385;28;20064;-76
2022/06/03 10:04:24;;;;;;;1.35;1.25;;;;;;;19.65;65.04;102137.16;4947105;28;20053;-75
2022/06/03 10:06:53;;;;;;;1.70;1.60;;;;;;;19.71;65.25;102139.72;4928586;28;20256;-76
2022/06/03 10:15:42;;;;;;;3.50;1.80;;;;;;;19.81;63.71;102125.38;4928996;28;20054;-75
2022/06/03 10:18:20;;;;;;;1.80;1.70;;;;;;;19.77;64.32;102131.69;4946600;28;20046;-76
2022/06/03 10:20:51;;;;;;;3.08;1.73;;;;;;;19.76;64.62;102129.03;4952590;28;20564;-76
2022/06/03 10:23:22;;;;;;;4.78;1.83;;;;;;;19.81;65.20;102133.41;4959830;28;20058;-75
2022/06/03 10:26:22;;;;;;;2.30;1.60;;;;;;;19.90;64.11;102115.44;4936548;28;20046;-76
2022/06/03 10:28:52;;;;;;;1.98;1.77;;;;;;;19.94;63.73;102120.69;4924020;28;20452;-76
2022/06/03 10:31:29;;;;;;;2.00;1.80;;;;;;;20.02;64.75;102125.94;4962436;28;20068;-76
2022/06/03 10:34:05;;;;;;;2.15;1.95;;;;;;;20.14;64.98;102127.53;4948728;28;20532;-76
2022/06/03 10:36:40;;;;;;;2.03;1.80;;;;;;;20.17;63.44;102119.44;4940323;28;20051;-76
2022/06/03 10:39:17;;;;;;;2.28;1.60;;;;;;;20.19;63.45;102118.53;4957352;28;21299;-76
2022/06/03 10:41:51;;;;;;;1.85;1.60;;;;;;;20.30;64.45;102117.44;4924781;28;20579;-76
2022/06/03 10:44:23;;;;;;;2.08;1.35;;;;;;;20.41;63.27;102115.47;4963189;28;20050;-75
2022/06/03 10:47:02;;;;;;;1.90;1.80;;;;;;;20.39;63.17;102114.59;4921073;28;20253;-75
2022/06/03 10:49:35;;;;;;;3.47;1.73;;;;;;;20.45;62.91;102110.03;4950300;28;20047;-76
2022/06/03 11:03:29;;;;;;;2.67;1.58;;;;;;;20.93;60.04;102100.25;4960540;28;20050;-75
2022/06/03 11:06:06;;;;;;;1.92;1.40;;;;;;;21.08;61.11;102088.31;4948007;28;20042;-76
2022/06/03 11:09:00;;;;;;;1.80;1.70;;;;;;;21.21;58.89;102101.44;4957593;28;20057;-75
2022/06/03 11:11:48;;;;;;;2.92;1.65;;;;;;;21.29;55.95;102097.72;4957362;28;20046;-75
2022/06/03 11:14:49;;;;;;;1.60;1.50;;;;;;;21.30;56.80;102097.66;4953262;28;20070;-76
2022/06/03 11:17:22;;;;;;;1.75;1.15;;;;;;;21.33;58.56;102081.50;4906244;28;20458;-76
2022/06/03 11:19:56;;;;;;;2.15;1.23;;;;;;;21.49;59.15;102081.19;4929016;28;20834;-76
2022/06/03 11:22:30;;;;;;;1.27;1.17;;;;;;;21.66;60.17;102083.50;4935717;28;20061;-76
2022/06/03 11:25:27;;;;;;;1.52;1.27;;;;;;;21.80;58.24;102078.69;4927777;29;20424;-76
2022/06/03 11:28:03;;;;;;;3.17;1.30;;;;;;;21.92;57.01;102073.00;4910341;28;20082;-76
2022/06/03 11:30:48;;;;;;;2.95;1.65;;;;;;;22.00;54.35;102065.66;4930441;28;20505;-76
2022/06/03 11:33:27;;;;;;;4.45;1.33;;;;;;;22.08;55.91;102072.63;4893081;28;20408;-76
2022/06/03 11:36:01;;;;;;;1.60;1.45;;;;;;;22.12;54.93;102059.09;4923225;28;20521;-76
2022/06/03 11:38:37;;;;;;;1.30;1.20;;;;;;;22.10;54.24;102058.25;4906225;28;20063;-75
2022/06/03 11:41:11;;;;;;;2.92;1.40;;;;;;;22.09;54.18;102061.84;4902290;29;20067;-76
2022/06/03 11:43:47;;;;;;;2.45;1.20;;;;;;;22.07;54.54;102050.28;4904554;28;21084;-75
2022/06/03 11:46:55;;;;;;;1.70;1.20;;;;;;;22.17;51.47;102050.91;4907216;28;20370;-77
2022/06/03 11:49:24;;;;;;;2.38;1.10;;;;;;;22.24;52.92;102057.00;4902920;29;20052;-77
2022/06/03 11:51:53;;;;;;;1.58;1.10;;;;;;;22.30;54.44;102046.13;4872045;29;21493;-78
2022/06/03 11:54:25;;;;;;;3.33;1.10;;;;;;;22.39;57.32;102041.38;4901867;29;20051;-77
2022/06/03 11:56:53;;;;;;;6.70;1.80;;;;;;;22.37;55.72;102040.56;4910848;28;20174;-77
2022/06/03 11:59:45;;;;;;;3.45;1.48;;;;;;;22.36;54.18;102041.50;4915070;29;20052;-76
2022/06/03 12:02:20;;;;;;;3.40;1.58;;;;;;;22.44;53.92;102035.91;4885942;28;20509;-76
2022/06/03 12:04:54;;;;;;;1.55;1.20;;;;;;;22.47;53.52;102037.63;4915971;28;20062;-76
2022/06/03 12:07:32;;;;;;;4.78;3.65;;;;;;;22.56;54.84;102035.56;4897203;29;20063;-76
2022/06/03 12:10:57;;;;;;;3.03;1.95;;;;;;;22.65;52.00;102030.88;4904250;29;20344;-76
2022/06/03 12:13:31;;;;;;;2.47;1.40;;;;;;;22.50;58.33;102033.03;4894473;29;20064;-76
2022/06/03 12:16:10;;;;;;;3.67;1.23;;;;;;;22.29;58.29;102025.59;4889686;29;20185;-76
2022/06/03 12:19:04;;;;;;;5.38;1.30;;;;;;;22.13;60.04;102023.25;4889063;29;20047;-76
2022/06/03 12:21:32;;;;;;;3.60;1.65;;;;;;;22.04;61.10;102042.31;4912125;29;20760;-77
2022/06/03 12:24:26;;;;;;;2.67;1.40;;;;;;;22.05;60.68;102037.81;4929240;28;21142;-77
2022/06/03 12:26:55;;;;;;;4.35;1.40;;;;;;;22.03;60.68;102045.03;4966237;28;20574;-77
2022/06/03 12:29:38;;;;;;;5.18;1.38;;;;;;;21.99;60.80;102046.91;4950784;28;20055;-79
2022/06/03 12:32:27;;;;;;;5.47;1.27;;;;;;;21.91;62.83;102046.19;4957267;28;20042;-78
2022/06/03 12:35:38;;;;;;;6.32;1.50;;;;;;;21.69;65.02;102049.44;4930522;28;20050;-78
2022/06/03 12:38:37;;;;;;;3.67;1.23;;;;;;;21.49;63.87;102043.66;4937498;28;20050;-78
2022/06/03 12:41:06;;;;;;;2.88;1.17;;;;;;;21.42;63.88;102046.47;4940258;28;20824;-78
2022/06/03 12:43:47;;;;;;;1.23;1.13;;;;;;;21.54;65.24;102048.00;4923401;28;20054;-77
2022/06/03 12:46:42;;;;;;;3.63;1.45;;;;;;;21.59;64.57;102048.78;4949406;28;20050;-78
2022/06/03 12:49:30;;;;;;;3.70;1.55;;;;;;;21.50;66.01;102051.66;4924240;28;20404;-77
2022/06/03 12:52:05;;;;;;;2.00;1.30;;;;;;;21.53;66.06;102034.63;4930195;28;21432;-78
2022/06/03 12:54:46;;;;;;;6.60;1.63;;;;;;;21.62;63.82;102039.75;4961919;28;20089;-77
2022/06/03 12:57:26;;;;;;;2.28;0.98;;;;;;;21.59;62.90;102026.44;4938086;28;20622;-77
2022/06/03 13:00:00;;;;;;;4.82;1.13;;;;;;;21.33;62.93;102057.38;4963418;28;20193;-77
2022/06/03 13:02:51;;;;;;;3.53;1.20;;;;;;;21.12;60.71;102048.03;4920405;28;20051;-78
2022/06/03 13:05:27;;;;;;;1.92;1.23;;;;;;;21.08;62.96;102054.38;4950747;28;20053;-78
2022/06/03 13:08:05;;;;;;;3.17;1.10;;;;;;;20.96;61.18;102068.00;4952153;28;20058;-78
2022/06/03 13:11:01;;;;;;;1.55;1.10;;;;;;;20.86;61.62;102064.66;4954048;28;20052;-77